LHPP/PEV METAR and TAF weather

Enter ICAO airport designator
Station Type Date Time Source
LHPP METAR 2018/12/19 09:45 UTC NOAA

LHPP 190945Z 12002KT 0000 FZFG VV001 M06/M08 Q1029


Station Type Date Time Source
LHPP Decoded METAR 2018/12/19 09:45 UTC NOAA

Pecs / Pogany, Hungary (LHPP) 46-06N 018-14E 203M
Dec 19, 2018 - 04:45 AM EST / 2018.12.19 0945 UTC
Wind: from the ESE (120 degrees) at 2 MPH (2 KT):0
Visibility: less than 1 mile:0
Sky conditions: obscured
Weather: freezing fog
Temperature: 21 F (-6 C)
Dew Point: 17 F (-8 C)
Relative Humidity: 85%
Pressure (altimeter): 30.39 in. Hg (1029 hPa)
ob: LHPP 190945Z 12002KT 0000 FZFG VV001 M06/M08 Q1029
cycle: 10

Station Type Date Time Source
LHPP TAF 2017/08/21 15:50 UTC NOAA

TAF LHPP 211700Z 2115/2214 CNL


Example: see airport list